Time;durP1;ratioP1;P1;durP2;ratioP2;P2;SDS_P1;SDS_P2;PMS_P1;PMS_P2;Temp;Humidity;BMP_temperature;BMP_pressure;BME280_temperature;BME280_humidity;BME280_pressure;Samples;Min_cycle;Max_cycle;Signal;HPM_P1;HPM_P2
2024/01/21 00:00:11;;;;;;;36.83;19.33;;;-3.70;99.90;;;;;;4985299;28;20198;-74
2024/01/21 00:02:43;;;;;;;38.17;19.75;;;-3.80;99.90;;;;;;4985063;28;20032;-73
2024/01/21 00:06:03;;;;;;;35.22;18.60;;;-3.80;99.90;;;;;;4969276;28;20185;-73
2024/01/21 00:08:29;;;;;;;35.90;18.58;;;-3.80;99.90;;;;;;4929345;29;20051;-73
2024/01/21 00:10:58;;;;;;;37.75;19.73;;;-3.70;99.90;;;;;;4996880;28;20251;-73
2024/01/21 00:13:27;;;;;;;37.63;19.38;;;-3.70;99.90;;;;;;4967426;28;20312;-73
2024/01/21 00:15:53;;;;;;;37.13;19.05;;;-3.70;99.90;;;;;;5005055;28;20049;-73
2024/01/21 00:18:20;;;;;;;35.70;18.90;;;-3.70;99.90;;;;;;4985678;28;20053;-73
2024/01/21 00:20:46;;;;;;;36.92;19.63;;;-3.70;99.90;;;;;;4968984;28;20312;-72
2024/01/21 00:23:16;;;;;;;37.22;18.55;;;-3.80;99.90;;;;;;4969701;28;20026;-73
2024/01/21 00:25:46;;;;;;;30.73;17.20;;;-3.80;99.90;;;;;;4969019;28;20065;-74
2024/01/21 00:28:14;;;;;;;31.27;15.88;;;-3.80;99.90;;;;;;4968870;28;20033;-75
2024/01/21 00:30:44;;;;;;;32.05;14.95;;;-3.80;99.90;;;;;;4985003;28;20022;-74
2024/01/21 00:33:13;;;;;;;33.42;17.45;;;-3.80;99.90;;;;;;4985335;28;20094;-74
2024/01/21 00:35:40;;;;;;;34.40;17.02;;;-3.90;99.90;;;;;;4984908;28;20050;-73
2024/01/21 00:38:05;;;;;;;32.38;17.85;;;-3.90;99.90;;;;;;5004200;28;20042;-71
2024/01/21 00:40:31;;;;;;;33.40;17.67;;;-3.80;99.90;;;;;;5021255;28;20247;-76
2024/01/21 00:43:03;;;;;;;31.40;16.58;;;-3.80;99.90;;;;;;5008108;28;20220;-73
2024/01/21 00:45:29;;;;;;;33.92;17.90;;;-3.80;99.90;;;;;;5024843;28;20025;-73
2024/01/21 00:47:58;;;;;;;32.90;17.60;;;-3.80;99.90;;;;;;5007956;28;20272;-73
2024/01/21 00:50:30;;;;;;;34.53;17.45;;;-3.80;99.90;;;;;;5008219;28;20033;-75
2024/01/21 00:53:05;;;;;;;32.30;17.27;;;-3.80;99.90;;;;;;4991631;28;20101;-74
2024/01/21 00:55:34;;;;;;;30.95;15.88;;;-3.80;99.90;;;;;;4991745;28;20026;-73
2024/01/21 00:58:03;;;;;;;31.13;16.30;;;-3.80;99.90;;;;;;5008059;28;20248;-73
2024/01/21 01:00:31;;;;;;;27.52;14.95;;;-3.90;99.90;;;;;;5007984;28;20101;-74
2024/01/21 01:03:06;;;;;;;27.63;15.30;;;-4.00;99.90;;;;;;5024524;28;20464;-74
2024/01/21 01:06:12;;;;;;;28.65;16.40;;;-4.10;99.90;;;;;;5025305;28;20232;-75
2024/01/21 01:08:37;;;;;;;33.33;16.17;;;-4.10;99.90;;;;;;5007712;28;20152;-74
2024/01/21 01:11:09;;;;;;;33.22;17.20;;;-4.10;99.90;;;;;;5025562;28;20026;-76
2024/01/21 01:13:35;;;;;;;28.98;16.67;;;-4.10;99.90;;;;;;5025651;28;20026;-74
2024/01/21 01:16:02;;;;;;;29.77;16.45;;;-4.10;99.90;;;;;;5008062;28;20032;-73
2024/01/21 01:18:37;;;;;;;30.52;16.77;;;-4.10;99.90;;;;;;5007861;28;20164;-75
2024/01/21 01:21:38;;;;;;;27.15;15.35;;;-4.10;99.90;;;;;;5011270;28;20030;-75
2024/01/21 01:24:30;;;;;;;32.42;16.23;;;-4.10;99.90;;;;;;5018380;28;20038;-74
2024/01/21 01:27:11;;;;;;;29.25;16.27;;;-4.20;99.90;;;;;;4990636;28;20039;-73
2024/01/21 01:30:01;;;;;;;26.38;15.55;;;-4.20;99.90;;;;;;5010011;28;20060;-74
2024/01/21 01:32:27;;;;;;;28.13;14.98;;;-4.20;99.90;;;;;;5025108;28;20044;-74
2024/01/21 01:35:00;;;;;;;25.35;14.65;;;-4.20;99.90;;;;;;5024975;28;20062;-74
2024/01/21 01:37:30;;;;;;;26.05;14.57;;;-4.30;99.90;;;;;;5011165;28;20042;-76
2024/01/21 01:40:19;;;;;;;30.52;16.58;;;-4.30;99.90;;;;;;5004768;28;20088;-73
2024/01/21 01:43:18;;;;;;;28.90;15.95;;;-4.30;99.90;;;;;;4989675;28;20048;-74
2024/01/21 01:45:47;;;;;;;27.45;15.43;;;-4.30;99.90;;;;;;4986841;28;20112;-72
2024/01/21 01:48:33;;;;;;;29.17;15.85;;;-4.30;99.90;;;;;;5004881;28;20049;-75
2024/01/21 01:51:33;;;;;;;29.25;15.80;;;-4.30;99.90;;;;;;4974495;28;20148;-74
2024/01/21 01:58:08;;;;;;;29.88;15.52;;;-4.40;99.90;;;;;;5004351;28;20344;-72
2024/01/21 02:00:47;;;;;;;29.23;16.58;;;-4.40;99.90;;;;;;4987296;28;20062;-72
2024/01/21 02:03:34;;;;;;;29.13;15.95;;;-4.50;99.90;;;;;;4990009;28;20030;-74
2024/01/21 02:06:00;;;;;;;28.98;14.52;;;-4.50;99.90;;;;;;4986401;28;20030;-74
2024/01/21 02:08:44;;;;;;;29.90;16.48;;;-4.50;99.90;;;;;;4989850;28;20219;-74
2024/01/21 02:11:16;;;;;;;28.05;15.88;;;-4.60;99.90;;;;;;4987655;28;20058;-74
2024/01/21 02:13:42;;;;;;;27.98;15.30;;;-4.60;99.90;;;;;;5004000;28;20041;-74
2024/01/21 02:16:11;;;;;;;26.98;15.40;;;-4.60;99.90;;;;;;5004607;28;20292;-73
2024/01/21 02:19:26;;;;;;;29.70;15.02;;;-4.60;99.90;;;;;;4987307;28;20045;-75
2024/01/21 02:24:48;;;;;;;25.65;13.90;;;-4.60;99.90;;;;;;4998119;28;20320;-75
2024/01/21 02:27:40;;;;;;;27.10;14.63;;;-4.50;99.90;;;;;;5000980;28;20333;-74
2024/01/21 02:30:10;;;;;;;24.50;14.15;;;-4.50;99.90;;;;;;5003989;28;20045;-75
2024/01/21 02:32:42;;;;;;;27.33;14.48;;;-4.60;99.90;;;;;;5004201;28;20022;-73
2024/01/21 02:35:11;;;;;;;28.80;14.57;;;-4.50;99.90;;;;;;5004418;28;20038;-73
2024/01/21 02:37:36;;;;;;;26.17;14.50;;;-4.50;99.90;;;;;;5018215;28;20050;-74
2024/01/21 02:40:20;;;;;;;28.60;14.88;;;-4.50;99.90;;;;;;4986863;28;20035;-74
2024/01/21 02:42:49;;;;;;;28.38;14.90;;;-4.60;99.90;;;;;;5000397;28;20117;-74
2024/01/21 02:45:17;;;;;;;28.60;15.30;;;-4.50;99.90;;;;;;4986140;28;20073;-74
2024/01/21 02:47:46;;;;;;;26.52;14.43;;;-4.50;99.90;;;;;;5001655;28;20305;-74
2024/01/21 02:50:14;;;;;;;24.58;14.10;;;-4.50;99.90;;;;;;5001539;28;20269;-74
2024/01/21 02:56:03;;;;;;;23.60;13.35;;;-4.50;99.90;;;;;;4966256;28;20416;-74
2024/01/21 02:58:55;;;;;;;25.10;14.23;;;-4.50;99.90;;;;;;4972225;28;20031;-74
2024/01/21 03:01:22;;;;;;;25.45;13.80;;;-4.50;99.90;;;;;;4947504;29;20039;-74
2024/01/21 03:03:48;;;;;;;20.55;12.10;;;-4.50;99.90;;;;;;4946455;29;20042;-74
2024/01/21 03:06:22;;;;;;;24.83;13.38;;;-4.40;99.90;;;;;;4991823;28;20030;-73
2024/01/21 03:08:53;;;;;;;24.88;13.27;;;-4.40;99.90;;;;;;5001428;28;20070;-74
2024/01/21 03:11:38;;;;;;;27.58;14.02;;;-4.40;99.90;;;;;;5001795;28;20036;-74
2024/01/21 03:17:09;;;;;;;27.83;14.68;;;-4.50;99.90;;;;;;4990146;28;20053;-74
2024/01/21 03:19:58;;;;;;;26.90;14.55;;;-4.60;99.90;;;;;;5001735;28;20050;-73
2024/01/21 03:22:24;;;;;;;29.27;14.77;;;-4.60;99.90;;;;;;4984635;28;20054;-75
2024/01/21 03:28:40;;;;;;;29.52;14.93;;;-4.70;99.90;;;;;;5001469;28;20343;-74
2024/01/21 03:31:06;;;;;;;27.88;15.20;;;-4.70;99.90;;;;;;5001041;28;20037;-73
2024/01/21 03:34:03;;;;;;;30.52;16.58;;;-4.80;99.90;;;;;;5000178;28;20040;-74
2024/01/21 03:39:24;;;;;;;32.08;17.08;;;-4.70;99.90;;;;;;5040025;28;20064;-74
2024/01/21 03:42:37;;;;;;;31.88;16.65;;;-4.70;99.90;;;;;;5023680;28;20121;-73
2024/01/21 03:45:03;;;;;;;30.60;16.88;;;-4.70;99.90;;;;;;4986601;28;20109;-75
2024/01/21 03:47:28;;;;;;;30.90;17.90;;;-4.70;99.90;;;;;;5008977;28;20098;-73
2024/01/21 03:53:18;;;;;;;35.30;18.05;;;-4.80;99.90;;;;;;5003060;28;20094;-73
2024/01/21 03:55:44;;;;;;;34.05;17.52;;;-4.80;99.90;;;;;;5002325;28;20040;-73
2024/01/21 03:58:12;;;;;;;36.53;18.80;;;-4.80;99.90;;;;;;4983453;28;20110;-74
2024/01/21 04:00:43;;;;;;;31.10;17.55;;;-4.80;99.90;;;;;;4985398;28;20026;-74
2024/01/21 04:03:11;;;;;;;35.00;17.88;;;-4.90;99.90;;;;;;4981417;28;20081;-74
2024/01/21 04:05:40;;;;;;;34.38;17.70;;;-4.80;99.90;;;;;;4981322;28;20039;-73
2024/01/21 04:08:34;;;;;;;33.65;18.17;;;-4.80;99.90;;;;;;4984434;28;20087;-73
2024/01/21 04:11:16;;;;;;;33.78;17.08;;;-4.80;99.90;;;;;;4950914;28;20176;-74
2024/01/21 04:14:29;;;;;;;33.53;17.10;;;-4.80;99.90;;;;;;4974836;28;20375;-74
2024/01/21 04:16:54;;;;;;;29.90;16.35;;;-4.80;99.90;;;;;;4980756;28;20050;-74
2024/01/21 04:22:43;;;;;;;31.02;16.02;;;-4.80;99.90;;;;;;4954550;28;20038;-75
2024/01/21 04:25:08;;;;;;;33.17;16.27;;;-4.90;99.90;;;;;;5017821;28;20030;-74
2024/01/21 04:27:37;;;;;;;29.13;15.65;;;-4.90;99.90;;;;;;5002368;28;20078;-74
2024/01/21 04:30:06;;;;;;;29.50;15.98;;;-4.90;99.90;;;;;;4996995;28;20086;-73
2024/01/21 04:32:59;;;;;;;27.42;16.15;;;-5.00;99.90;;;;;;5002650;28;20018;-74
2024/01/21 04:35:30;;;;;;;31.17;16.42;;;-4.90;99.90;;;;;;5001300;28;20060;-72
2024/01/21 04:38:23;;;;;;;28.95;15.50;;;-5.00;99.90;;;;;;5006434;28;20276;-73
2024/01/21 04:41:14;;;;;;;27.90;15.40;;;-5.00;99.90;;;;;;5001179;28;20034;-74
2024/01/21 04:43:44;;;;;;;29.65;15.57;;;-4.90;99.90;;;;;;5002357;28;20026;-73
2024/01/21 04:46:12;;;;;;;32.78;17.17;;;-4.90;99.90;;;;;;5001571;28;20030;-73
2024/01/21 04:48:39;;;;;;;29.27;16.40;;;-4.80;99.90;;;;;;5002405;28;20117;-74
2024/01/21 04:51:47;;;;;;;;;;;;;;;;;;;;;
2024/01/21 04:54:32;;;;;;;32.47;16.90;;;-4.70;99.90;;;;;;5000584;28;20030;-75
2024/01/21 04:57:07;;;;;;;33.83;17.85;;;-4.80;99.90;;;;;;5002251;28;20102;-74
2024/01/21 04:59:44;;;;;;;33.20;16.55;;;-4.90;99.90;;;;;;5001243;28;20133;-75
2024/01/21 05:02:13;;;;;;;30.35;16.75;;;-4.90;99.90;;;;;;5002033;28;20045;-74
2024/01/21 05:04:45;;;;;;;29.35;16.88;;;-4.90;99.90;;;;;;4990512;28;20037;-76
2024/01/21 05:07:13;;;;;;;29.48;16.33;;;-4.90;99.90;;;;;;5002192;28;20031;-75
2024/01/21 05:09:43;;;;;;;30.17;16.38;;;-5.00;99.90;;;;;;5001875;28;20026;-74
2024/01/21 05:12:39;;;;;;;32.90;17.02;;;-4.90;99.90;;;;;;4963557;28;20047;-74
2024/01/21 05:15:26;;;;;;;29.27;16.65;;;-4.90;99.90;;;;;;4980647;28;20344;-74
2024/01/21 05:18:13;;;;;;;33.70;17.27;;;-4.90;99.90;;;;;;4984430;28;20032;-75
2024/01/21 05:20:51;;;;;;;31.43;16.70;;;-4.80;99.90;;;;;;5002664;28;20038;-74
2024/01/21 05:23:16;;;;;;;;;;;-4.80;99.90;;;;;;5001992;28;20086;-76
2024/01/21 05:25:53;;;;;;;29.25;15.77;;;-4.80;99.90;;;;;;5001772;28;19961;-76
2024/01/21 05:31:58;;;;;;;28.52;15.23;;;-4.80;99.90;;;;;;4975461;28;20238;-75
2024/01/21 05:35:24;;;;;;;28.92;15.30;;;-4.80;99.90;;;;;;4934622;29;20046;-74
2024/01/21 05:37:52;;;;;;;27.10;15.48;;;-4.80;99.90;;;;;;4953352;29;20059;-75
2024/01/21 05:40:27;;;;;;;29.58;15.75;;;-4.80;99.90;;;;;;4947262;29;20128;-74
2024/01/21 05:43:00;;;;;;;29.67;15.45;;;-4.70;99.90;;;;;;4964463;29;20380;-74
2024/01/21 05:45:33;;;;;;;27.95;14.95;;;-4.70;99.90;;;;;;4948714;29;20027;-73
2024/01/21 05:48:15;;;;;;;30.75;15.75;;;-4.50;99.90;;;;;;4932329;29;20051;-73
2024/01/21 05:50:53;;;;;;;28.05;15.32;;;-4.50;99.90;;;;;;4944670;29;20059;-74
2024/01/21 05:53:44;;;;;;;29.52;15.07;;;-4.50;99.90;;;;;;4945499;29;20063;-74
2024/01/21 05:56:30;;;;;;;39.88;20.88;;;-4.50;99.90;;;;;;4956516;29;20031;-74
2024/01/21 06:02:53;;;;;;;39.75;20.85;;;-4.50;99.90;;;;;;4906810;29;20353;-75
2024/01/21 06:05:20;;;;;;;32.22;17.38;;;-4.50;99.90;;;;;;4905259;29;20040;-75
2024/01/21 06:08:48;;;;;;;34.05;16.48;;;-4.50;99.90;;;;;;4906473;29;20036;-75
2024/01/21 06:11:35;;;;;;;27.35;14.68;;;-4.60;99.90;;;;;;4856172;29;20111;-74
2024/01/21 06:17:04;;;;;;;23.30;13.38;;;-4.60;99.90;;;;;;4905839;29;20157;-74
2024/01/21 06:19:45;;;;;;;;;;;;;;;;;;;;;
2024/01/21 06:22:21;;;;;;;23.27;13.63;;;-4.70;99.90;;;;;;4890994;29;20040;-74
2024/01/21 06:25:08;;;;;;;26.05;12.38;;;-4.70;99.90;;;;;;4887682;29;20128;-73
2024/01/21 06:27:49;;;;;;;23.90;13.40;;;-4.80;99.90;;;;;;4887515;29;20239;-75
2024/01/21 06:30:38;;;;;;;23.75;12.95;;;-4.80;99.90;;;;;;4888004;29;20040;-76
2024/01/21 06:33:19;;;;;;;24.23;12.35;;;-4.80;99.90;;;;;;4888718;29;20048;-73
2024/01/21 06:36:01;;;;;;;22.10;12.80;;;-4.80;99.90;;;;;;4906198;29;20041;-74
2024/01/21 06:41:52;;;;;;;21.25;11.30;;;-4.90;99.90;;;;;;5004305;28;20076;-73
2024/01/21 06:44:30;;;;;;;21.75;11.32;;;-5.00;99.90;;;;;;4986707;28;20105;-74
2024/01/21 06:46:59;;;;;;;23.65;11.02;;;-5.00;99.90;;;;;;5003976;28;20058;-73
2024/01/21 06:49:50;;;;;;;21.13;11.63;;;-5.00;99.90;;;;;;4996066;28;20078;-74
2024/01/21 06:52:16;;;;;;;22.25;11.45;;;-5.00;99.90;;;;;;4986621;28;20251;-73
2024/01/21 06:54:42;;;;;;;20.30;10.88;;;-5.00;99.90;;;;;;5004178;28;20046;-74
2024/01/21 06:58:14;;;;;;;21.33;10.65;;;-5.00;99.90;;;;;;4985866;28;20225;-74
2024/01/21 07:00:51;;;;;;;18.88;10.15;;;-5.00;99.90;;;;;;4962423;28;20062;-74
2024/01/21 07:06:46;;;;;;;18.63;9.73;;;-4.90;99.90;;;;;;4924227;29;20044;-74
2024/01/21 07:10:04;;;;;;;21.48;11.75;;;-4.80;99.90;;;;;;4924665;29;20040;-74
2024/01/21 07:12:32;;;;;;;21.52;11.73;;;-4.80;99.90;;;;;;4924404;29;20094;-75
2024/01/21 07:18:23;;;;;;;20.98;11.32;;;-4.80;99.90;;;;;;4963376;28;20215;-75
2024/01/21 07:24:21;;;;;;;19.83;11.48;;;-4.70;99.90;;;;;;4950461;29;20058;-73
2024/01/21 07:27:35;;;;;;;22.63;11.82;;;-4.60;99.90;;;;;;4950145;29;20030;-75
2024/01/21 07:30:14;;;;;;;20.38;10.95;;;-4.40;99.90;;;;;;4961957;29;20047;-76
2024/01/21 07:32:44;;;;;;;20.42;11.43;;;-4.20;99.90;;;;;;4939639;29;20032;-73
2024/01/21 07:36:06;;;;;;;22.08;10.90;;;-4.20;99.90;;;;;;4956189;29;20102;-73
2024/01/21 07:38:53;;;;;;;18.75;11.30;;;-4.10;99.90;;;;;;4894035;29;20154;-74
2024/01/21 07:41:39;;;;;;;23.20;11.25;;;-4.00;99.90;;;;;;4905944;29;20040;-74
2024/01/21 07:44:14;;;;;;;23.58;12.55;;;-3.90;99.90;;;;;;4923916;29;20395;-74
2024/01/21 07:47:23;;;;;;;22.50;11.68;;;-3.80;99.90;;;;;;4908520;29;20063;-76
2024/01/21 07:49:49;;;;;;;22.80;11.90;;;-3.70;99.90;;;;;;4910871;29;20051;-76
2024/01/21 07:52:18;;;;;;;19.52;11.15;;;-3.60;99.90;;;;;;4909241;29;20036;-75
2024/01/21 07:55:25;;;;;;;20.35;11.23;;;-3.50;99.90;;;;;;4905438;29;20223;-74
2024/01/21 07:57:50;;;;;;;23.75;12.45;;;-3.40;99.90;;;;;;4887397;29;20045;-75
2024/01/21 08:00:17;;;;;;;21.77;11.88;;;-3.30;99.90;;;;;;4917094;29;20048;-75
2024/01/21 08:03:14;;;;;;;23.17;11.95;;;-3.20;99.90;;;;;;4909082;29;20024;-74
2024/01/21 08:05:50;;;;;;;17.05;9.52;;;-3.20;99.90;;;;;;4924234;29;20104;-74
2024/01/21 08:08:35;;;;;;;19.38;11.32;;;-3.00;99.90;;;;;;4923988;29;20064;-76
2024/01/21 08:11:04;;;;;;;22.92;11.75;;;-2.90;99.90;;;;;;4903764;29;20133;-75
2024/01/21 08:17:00;;;;;;;20.08;11.77;;;-2.80;99.90;;;;;;4886176;29;20033;-76
2024/01/21 08:19:26;;;;;;;21.42;11.98;;;-2.70;99.90;;;;;;4905673;29;20048;-74
2024/01/21 08:22:00;;;;;;;19.67;11.48;;;-2.60;99.90;;;;;;4923713;29;20126;-74
2024/01/21 08:25:17;;;;;;;22.83;11.75;;;-2.50;99.90;;;;;;4935110;28;20053;-75
2024/01/21 08:28:22;;;;;;;20.75;11.50;;;-2.30;99.90;;;;;;4983091;28;20052;-74
2024/01/21 08:31:31;;;;;;;21.95;12.77;;;-2.30;99.90;;;;;;4982801;28;20086;-75
2024/01/21 08:34:09;;;;;;;25.52;12.48;;;-2.30;99.90;;;;;;4995333;28;20244;-75
2024/01/21 08:36:55;;;;;;;21.33;12.40;;;-2.20;99.90;;;;;;4986906;28;20027;-74
2024/01/21 08:39:39;;;;;;;20.60;12.38;;;-2.20;99.90;;;;;;4985013;28;20053;-75
2024/01/21 08:42:08;;;;;;;18.98;11.77;;;-2.20;99.90;;;;;;5002501;28;20046;-74
2024/01/21 08:44:33;;;;;;;19.90;12.38;;;-2.10;99.90;;;;;;4985307;28;20026;-76
2024/01/21 08:48:04;;;;;;;19.52;12.05;;;-2.00;99.90;;;;;;4984635;28;20041;-75
2024/01/21 08:50:30;;;;;;;22.30;12.18;;;-1.90;99.90;;;;;;4907671;29;20059;-76
2024/01/21 08:53:04;;;;;;;19.55;11.82;;;-1.90;99.90;;;;;;4923293;29;20040;-75
2024/01/21 08:55:46;;;;;;;24.42;11.60;;;-1.80;99.90;;;;;;4969388;28;20109;-74
2024/01/21 08:58:33;;;;;;;23.45;12.70;;;-1.80;99.90;;;;;;5001447;28;20344;-75
2024/01/21 09:01:47;;;;;;;22.52;12.50;;;-1.70;99.90;;;;;;5002510;28;20081;-75
2024/01/21 09:04:19;;;;;;;20.70;11.70;;;-1.60;99.90;;;;;;5005303;28;20245;-75
2024/01/21 09:06:48;;;;;;;22.00;11.70;;;-1.60;99.90;;;;;;5006092;28;20030;-75
2024/01/21 09:10:12;;;;;;;19.40;11.30;;;-1.50;99.90;;;;;;5004908;28;20037;-74
2024/01/21 09:16:30;;;;;;;24.65;12.02;;;-1.30;99.90;;;;;;5006332;28;20026;-74
2024/01/21 09:18:59;;;;;;;19.95;12.60;;;-1.30;99.90;;;;;;5005257;28;20373;-74
2024/01/21 09:21:32;;;;;;;18.55;11.43;;;-1.20;99.90;;;;;;4988284;28;20026;-75
2024/01/21 09:24:26;;;;;;;21.17;11.77;;;-1.10;99.90;;;;;;5004437;28;20050;-74
2024/01/21 09:26:54;;;;;;;20.35;11.35;;;-1.00;99.90;;;;;;5000346;28;20312;-76
2024/01/21 09:29:26;;;;;;;20.88;10.93;;;-0.90;99.90;;;;;;4987052;28;20037;-76
2024/01/21 09:32:13;;;;;;;20.25;10.85;;;-0.70;99.90;;;;;;5005645;28;20105;-74
2024/01/21 09:34:43;;;;;;;19.75;11.02;;;-0.50;99.80;;;;;;4985834;28;20259;-75
2024/01/21 09:37:12;;;;;;;18.63;10.13;;;-0.40;99.90;;;;;;5004584;28;20034;-76
2024/01/21 09:39:38;;;;;;;18.80;10.65;;;-0.20;99.60;;;;;;4987804;28;20046;-77
2024/01/21 09:42:16;;;;;;;16.20;9.95;;;-0.10;99.20;;;;;;4998029;28;20026;-76
2024/01/21 09:44:42;;;;;;;16.80;8.98;;;0.00;98.30;;;;;;4987995;28;20034;-77
2024/01/21 09:47:23;;;;;;;15.98;8.80;;;0.10;98.30;;;;;;4987304;28;20033;-76
2024/01/21 09:49:58;;;;;;;15.38;8.73;;;0.20;97.60;;;;;;4987077;28;20355;-76
2024/01/21 09:52:29;;;;;;;16.00;9.18;;;0.20;97.40;;;;;;5005352;28;20045;-77
2024/01/21 09:54:55;;;;;;;15.27;8.80;;;0.40;97.20;;;;;;4987386;28;20026;-76
2024/01/21 09:57:47;;;;;;;16.92;9.48;;;0.60;97.30;;;;;;4986927;28;20030;-76
2024/01/21 10:00:32;;;;;;;14.98;8.88;;;0.70;96.90;;;;;;4976039;28;20045;-74
2024/01/21 10:03:19;;;;;;;17.17;8.70;;;0.90;96.70;;;;;;5004698;28;20038;-76
2024/01/21 10:06:00;;;;;;;15.23;9.38;;;1.00;96.30;;;;;;4987667;28;20305;-73
2024/01/21 10:08:29;;;;;;;15.27;8.63;;;1.10;95.90;;;;;;5005007;28;20046;-76
2024/01/21 10:13:50;;;;;;;15.70;9.70;;;1.20;95.70;;;;;;4974608;28;20069;-77
2024/01/21 10:16:19;;;;;;;12.82;8.30;;;1.40;95.30;;;;;;5004029;28;20307;-75
2024/01/21 10:19:04;;;;;;;16.73;9.10;;;1.40;95.20;;;;;;4986305;28;20034;-76
2024/01/21 10:21:30;;;;;;;13.38;8.52;;;1.60;95.10;;;;;;4987286;28;20024;-75
2024/01/21 10:24:05;;;;;;;14.88;8.43;;;1.80;94.90;;;;;;4985751;28;20256;-77
2024/01/21 10:26:46;;;;;;;14.73;8.52;;;1.90;94.50;;;;;;4987082;28;20069;-76
2024/01/21 10:29:12;;;;;;;15.35;9.55;;;2.10;94.40;;;;;;4987175;28;20041;-79
2024/01/21 10:31:40;;;;;;;15.50;8.85;;;2.20;94.10;;;;;;4987437;28;20026;-74
2024/01/21 10:34:26;;;;;;;15.98;8.85;;;2.40;93.80;;;;;;5005215;28;20026;-74
2024/01/21 10:37:03;;;;;;;17.98;10.27;;;2.40;93.60;;;;;;5001678;28;20100;-73
2024/01/21 10:39:52;;;;;;;16.98;9.10;;;2.40;93.70;;;;;;4986234;28;20206;-74
2024/01/21 10:42:29;;;;;;;16.53;9.60;;;2.50;93.10;;;;;;4984553;28;20101;-75
2024/01/21 10:45:05;;;;;;;17.92;9.50;;;2.50;93.10;;;;;;4984405;28;20042;-75
2024/01/21 10:47:35;;;;;;;19.17;10.20;;;2.50;93.90;;;;;;5004488;28;20034;-74
2024/01/21 10:51:04;;;;;;;15.90;9.40;;;2.50;93.30;;;;;;4988189;28;20042;-74
2024/01/21 10:53:36;;;;;;;14.85;8.73;;;2.60;93.50;;;;;;4986646;28;20345;-73
2024/01/21 10:56:16;;;;;;;17.73;9.63;;;2.80;93.20;;;;;;4986209;28;20093;-76
2024/01/21 10:58:45;;;;;;;17.95;9.75;;;3.10;92.80;;;;;;4986671;28;20030;-76
2024/01/21 11:01:28;;;;;;;19.88;9.90;;;3.20;92.60;;;;;;4966952;28;20210;-73
2024/01/21 11:04:07;;;;;;;21.00;10.52;;;3.40;92.00;;;;;;4983380;28;20039;-74
2024/01/21 11:06:48;;;;;;;18.20;9.85;;;3.60;92.20;;;;;;4983419;28;20033;-73
2024/01/21 11:09:21;;;;;;;16.45;8.75;;;3.80;92.10;;;;;;4969695;28;20049;-72
2024/01/21 11:11:49;;;;;;;16.42;9.93;;;3.90;91.40;;;;;;4986232;28;20129;-74
2024/01/21 11:14:48;;;;;;;14.70;9.10;;;3.90;91.10;;;;;;4986697;28;20026;-75
2024/01/21 11:17:18;;;;;;;16.60;9.27;;;3.90;90.80;;;;;;4950710;28;20032;-74
2024/01/21 11:19:49;;;;;;;16.33;9.23;;;4.00;91.20;;;;;;5003658;28;20057;-75
2024/01/21 11:22:18;;;;;;;14.35;9.02;;;4.20;90.80;;;;;;4986280;28;20033;-75
2024/01/21 11:24:48;;;;;;;;;;;4.10;90.70;;;;;;4982593;28;20023;-73
2024/01/21 11:27:33;;;;;;;19.17;8.55;;;3.90;90.70;;;;;;4984201;28;19912;-76
2024/01/21 11:30:01;;;;;;;14.13;9.10;;;3.70;91.00;;;;;;4985810;28;20038;-74
2024/01/21 11:32:44;;;;;;;18.30;9.38;;;3.70;91.20;;;;;;5003349;28;20042;-75
2024/01/21 11:35:21;;;;;;;16.92;9.57;;;3.60;91.90;;;;;;5003316;28;20232;-74
2024/01/21 11:37:52;;;;;;;16.50;9.68;;;3.70;91.40;;;;;;5002177;28;20456;-75
2024/01/21 11:40:44;;;;;;;17.75;9.75;;;3.80;91.50;;;;;;4989427;28;20034;-74
2024/01/21 11:43:13;;;;;;;19.60;9.55;;;4.00;91.50;;;;;;4985358;28;20106;-75
2024/01/21 11:45:44;;;;;;;20.52;10.55;;;3.90;90.90;;;;;;5003472;28;20038;-74
2024/01/21 11:48:39;;;;;;;20.33;10.57;;;3.80;91.20;;;;;;4985343;28;20296;-73
2024/01/21 11:51:08;;;;;;;18.45;9.75;;;3.90;91.50;;;;;;4964343;28;20049;-74
2024/01/21 11:53:35;;;;;;;17.88;10.07;;;4.20;91.10;;;;;;5002879;28;20045;-76
2024/01/21 12:00:01;;;;;;;19.73;10.32;;;4.50;90.40;;;;;;4961781;28;20030;-73
2024/01/21 12:03:04;;;;;;;15.60;9.80;;;4.80;90.20;;;;;;4940167;29;20031;-75
2024/01/21 12:05:30;;;;;;;20.05;10.13;;;4.60;89.40;;;;;;4962032;29;20065;-73
2024/01/21 12:07:56;;;;;;;19.95;11.02;;;4.50;89.80;;;;;;4961749;29;20349;-75
2024/01/21 12:10:29;;;;;;;19.10;10.70;;;4.30;90.50;;;;;;4945588;29;20054;-77
2024/01/21 12:12:55;;;;;;;24.48;10.52;;;4.60;90.40;;;;;;4961068;29;20199;-73
2024/01/21 12:15:24;;;;;;;14.88;10.18;;;5.30;89.40;;;;;;4945881;29;20030;-75
2024/01/21 12:18:05;;;;;;;17.45;10.02;;;6.10;87.20;;;;;;4946192;29;20070;-74
2024/01/21 12:20:33;;;;;;;15.73;9.73;;;6.50;85.70;;;;;;4946124;29;20039;-78
2024/01/21 12:22:58;;;;;;;19.48;10.60;;;6.70;83.50;;;;;;4945297;29;20261;-76
2024/01/21 12:25:31;;;;;;;15.02;9.75;;;7.20;82.50;;;;;;4962300;29;20027;-76
2024/01/21 12:27:59;;;;;;;16.33;9.75;;;7.80;80.60;;;;;;4929401;29;20031;-75
2024/01/21 12:30:25;;;;;;;17.02;9.65;;;8.80;78.50;;;;;;4962243;29;20094;-76
2024/01/21 12:32:51;;;;;;;16.40;10.10;;;9.90;75.80;;;;;;4945203;29;20074;-76
2024/01/21 12:38:27;;;;;;;19.17;9.60;;;12.10;68.80;;;;;;5001807;28;20229;-75
2024/01/21 12:41:15;;;;;;;17.25;9.98;;;13.00;65.30;;;;;;5006076;28;20085;-75
2024/01/21 12:43:52;;;;;;;12.88;9.15;;;13.30;65.10;;;;;;4989525;28;20050;-73
2024/01/21 12:46:21;;;;;;;14.85;8.95;;;13.20;64.20;;;;;;5006593;28;20040;-75
2024/01/21 12:48:50;;;;;;;17.30;9.80;;;12.90;64.80;;;;;;5006410;28;20042;-71
2024/01/21 12:51:19;;;;;;;15.95;8.82;;;12.20;65.70;;;;;;5005856;28;20308;-72
2024/01/21 12:53:46;;;;;;;16.10;10.38;;;12.40;65.60;;;;;;4989391;28;20305;-70
2024/01/21 12:56:27;;;;;;;14.95;10.52;;;12.30;65.20;;;;;;4972001;28;20105;-73
2024/01/21 12:58:56;;;;;;;17.75;9.70;;;12.00;65.90;;;;;;5005530;28;20022;-74
2024/01/21 13:01:22;;;;;;;14.80;9.85;;;12.10;65.50;;;;;;5006281;28;20030;-74
2024/01/21 13:04:15;;;;;;;17.25;9.57;;;11.80;66.30;;;;;;4971001;28;20256;-75
2024/01/21 13:06:47;;;;;;;16.52;10.18;;;11.60;66.50;;;;;;5006495;28;20221;-74
2024/01/21 13:09:18;;;;;;;18.27;10.05;;;11.90;66.60;;;;;;4988182;28;20026;-75
2024/01/21 13:11:52;;;;;;;16.63;9.95;;;12.00;66.10;;;;;;4988781;28;20034;-72
2024/01/21 13:14:21;;;;;;;14.95;10.05;;;11.40;67.30;;;;;;5005328;28;20089;-75
2024/01/21 13:16:58;;;;;;;15.75;9.70;;;11.00;67.70;;;;;;5005660;28;20034;-74
2024/01/21 13:19:24;;;;;;;16.17;9.55;;;10.80;68.70;;;;;;5005905;28;20064;-73
2024/01/21 13:21:56;;;;;;;16.27;9.85;;;11.20;68.60;;;;;;5005863;28;20026;-74
2024/01/21 13:24:42;;;;;;;16.65;9.88;;;11.30;68.40;;;;;;5003993;28;20058;-73
2024/01/21 13:27:27;;;;;;;14.25;10.00;;;11.30;68.20;;;;;;4987945;28;20217;-74
2024/01/21 13:32:43;;;;;;;16.65;10.27;;;10.60;69.80;;;;;;5005106;28;20044;-72
2024/01/21 13:35:14;;;;;;;17.45;10.70;;;10.00;71.70;;;;;;5005005;28;20061;-74
2024/01/21 13:37:44;;;;;;;16.67;10.77;;;9.10;73.00;;;;;;5004775;28;20084;-73
2024/01/21 13:40:31;;;;;;;17.48;10.88;;;8.40;75.00;;;;;;4987682;28;20030;-72
2024/01/21 13:42:57;;;;;;;17.30;10.95;;;8.30;76.50;;;;;;4988234;28;20027;-72
2024/01/21 13:45:23;;;;;;;15.10;9.77;;;8.10;76.10;;;;;;5005585;28;20036;-72
2024/01/21 13:47:54;;;;;;;16.13;9.98;;;8.30;76.10;;;;;;5004647;28;20321;-74
2024/01/21 13:50:20;;;;;;;18.77;10.98;;;8.40;76.20;;;;;;5005088;28;20329;-73
2024/01/21 13:52:46;;;;;;;16.98;10.32;;;8.50;76.30;;;;;;5005210;28;20030;-72
2024/01/21 13:55:15;;;;;;;18.65;10.43;;;8.30;77.00;;;;;;5004927;28;20202;-74
2024/01/21 13:57:40;;;;;;;17.65;10.48;;;8.30;76.50;;;;;;5004507;28;20010;-73
2024/01/21 14:00:13;;;;;;;16.15;10.55;;;8.20;76.60;;;;;;5004583;28;20289;-72
2024/01/21 14:02:39;;;;;;;16.33;10.57;;;8.00;77.10;;;;;;4971757;28;20030;-72
2024/01/21 14:05:08;;;;;;;15.73;10.27;;;7.80;77.70;;;;;;4971603;28;20018;-72
2024/01/21 14:07:42;;;;;;;17.17;10.15;;;7.70;77.70;;;;;;5004855;28;20034;-74
2024/01/21 14:10:11;;;;;;;18.45;10.88;;;7.30;79.10;;;;;;4987578;28;20038;-73
2024/01/21 14:12:40;;;;;;;16.05;9.88;;;7.60;78.90;;;;;;5004834;28;20030;-74
2024/01/21 14:15:08;;;;;;;15.80;10.52;;;7.80;78.30;;;;;;5004049;28;20060;-74
2024/01/21 14:17:58;;;;;;;16.60;10.20;;;8.50;77.20;;;;;;4987393;28;20193;-74
2024/01/21 14:20:31;;;;;;;15.45;9.75;;;9.20;75.20;;;;;;4987517;28;20108;-75
2024/01/21 14:23:00;;;;;;;20.58;10.25;;;9.50;74.10;;;;;;5004194;28;20225;-72
2024/01/21 14:25:47;;;;;;;13.18;9.90;;;9.50;73.90;;;;;;5004441;28;20038;-72
2024/01/21 14:28:15;;;;;;;16.17;9.48;;;9.10;74.40;;;;;;5004318;28;20052;-73
2024/01/21 14:30:41;;;;;;;15.85;9.65;;;8.90;75.00;;;;;;4971160;28;20018;-73
2024/01/21 14:33:06;;;;;;;17.17;9.98;;;8.60;75.30;;;;;;4983421;28;20217;-75
2024/01/21 14:35:35;;;;;;;15.35;9.93;;;8.70;75.70;;;;;;4987215;28;20018;-74